createdAt,value
2022-10-19T00:00:17.105Z,8.83
2022-10-19T00:02:45.190Z,8.71
2022-10-19T00:05:13.296Z,8.75
2022-10-19T00:07:41.345Z,8.64
2022-10-19T00:10:09.911Z,8.64
2022-10-19T00:12:39.599Z,8.59
2022-10-19T00:15:10.116Z,8.49
2022-10-19T00:17:38.149Z,8.42
2022-10-19T00:20:07.061Z,8.33
2022-10-19T00:22:35.471Z,8.32
2022-10-19T00:25:03.830Z,8.35
2022-10-19T00:27:31.967Z,8.38
2022-10-19T00:30:01.475Z,8.38
2022-10-19T00:32:29.599Z,8.39
2022-10-19T00:34:57.652Z,8.42
2022-10-19T00:37:25.707Z,8.47
2022-10-19T00:39:53.674Z,8.39
2022-10-19T00:42:21.727Z,8.32
2022-10-19T00:45:15.903Z,8.35
2022-10-19T00:47:45.515Z,8.20
2022-10-19T00:50:17.537Z,8.33
2022-10-19T00:52:45.663Z,8.33
2022-10-19T00:55:14.377Z,8.40
2022-10-19T00:57:42.610Z,8.36
2022-10-19T01:00:11.300Z,8.32
2022-10-19T01:02:40.818Z,8.25
2022-10-19T01:05:09.728Z,8.22
2022-10-19T01:07:37.979Z,8.24
2022-10-19T01:10:06.989Z,8.12
2022-10-19T01:12:56.195Z,8.31
2022-10-19T01:15:33.611Z,8.38
2022-10-19T01:18:11.483Z,8.32
2022-10-19T01:21:12.242Z,8.39
2022-10-19T01:24:19.912Z,8.53
2022-10-19T01:27:28.270Z,8.60
2022-10-19T01:30:06.330Z,8.59
2022-10-19T01:32:42.633Z,8.63
2022-10-19T01:35:15.750Z,8.73
2022-10-19T01:37:49.516Z,8.68
2022-10-19T01:40:26.123Z,8.67
2022-10-19T01:43:02.302Z,8.56
2022-10-19T01:45:39.885Z,8.61
2022-10-19T01:48:13.438Z,8.60
2022-10-19T01:50:46.976Z,8.61
2022-10-19T01:53:17.027Z,8.77
2022-10-19T01:55:48.205Z,8.71
2022-10-19T01:58:20.896Z,8.63
2022-10-19T02:00:52.246Z,8.42
2022-10-19T02:03:21.112Z,8.28
2022-10-19T02:05:51.812Z,8.40
2022-10-19T02:08:24.469Z,8.50
2022-10-19T02:10:52.995Z,8.24
2022-10-19T02:13:22.826Z,8.24
2022-10-19T02:15:56.057Z,8.09
2022-10-19T02:18:27.841Z,8.22
2022-10-19T02:20:56.288Z,8.12
2022-10-19T02:23:26.773Z,8.11
2022-10-19T02:25:55.671Z,8.01
2022-10-19T02:28:27.752Z,8.02
2022-10-19T02:30:58.289Z,7.95
2022-10-19T02:33:26.759Z,8.11
2022-10-19T02:35:55.032Z,8.15
2022-10-19T02:38:24.906Z,7.95
2022-10-19T02:40:58.973Z,7.86
2022-10-19T02:43:29.550Z,7.83
2022-10-19T02:46:03.156Z,7.88
2022-10-19T02:48:34.413Z,7.84
2022-10-19T02:51:02.431Z,7.78
2022-10-19T02:53:30.476Z,7.83
2022-10-19T02:55:58.535Z,7.67
2022-10-19T02:58:26.526Z,7.71
2022-10-19T03:00:54.516Z,7.69
2022-10-19T03:03:23.913Z,7.73
2022-10-19T03:05:52.275Z,7.58
2022-10-19T03:08:20.226Z,7.45
2022-10-19T03:10:48.260Z,7.56
2022-10-19T03:13:16.223Z,7.52
2022-10-19T03:15:44.208Z,7.45
2022-10-19T03:18:12.103Z,7.60
2022-10-19T03:20:41.437Z,7.69
2022-10-19T03:23:09.423Z,7.80
2022-10-19T03:25:37.378Z,7.84
2022-10-19T03:28:05.383Z,7.88
2022-10-19T03:30:33.323Z,7.91
2022-10-19T03:33:01.261Z,7.99
2022-10-19T03:35:29.241Z,8.25
2022-10-19T03:37:58.589Z,8.39
2022-10-19T03:40:26.569Z,8.49
2022-10-19T03:42:54.500Z,8.53
2022-10-19T03:45:22.477Z,8.74
2022-10-19T03:47:50.733Z,8.84
2022-10-19T03:50:18.884Z,8.73
2022-10-19T03:52:46.860Z,8.70
2022-10-19T03:55:16.632Z,8.84
2022-10-19T03:57:44.663Z,9.04
2022-10-19T04:00:13.998Z,9.20
2022-10-19T04:02:41.924Z,8.89
2022-10-19T04:05:10.279Z,8.78
2022-10-19T04:07:39.752Z,8.64
2022-10-19T04:10:08.522Z,8.81
2022-10-19T04:12:37.904Z,8.92
2022-10-19T04:15:06.487Z,8.94
2022-10-19T04:17:34.661Z,8.71
2022-10-19T04:20:02.827Z,8.70
2022-10-19T04:22:30.999Z,9.00
2022-10-19T04:24:58.962Z,8.91
2022-10-19T04:27:26.945Z,8.83
2022-10-19T04:29:56.225Z,8.68
2022-10-19T04:32:24.357Z,8.73
2022-10-19T04:34:52.264Z,8.81
2022-10-19T04:37:20.295Z,8.73
2022-10-19T04:39:48.191Z,8.67
2022-10-19T04:42:16.155Z,8.83
2022-10-19T04:44:44.092Z,8.94
2022-10-19T04:47:13.442Z,8.91
2022-10-19T04:49:41.375Z,8.84
2022-10-19T04:52:09.343Z,8.78
2022-10-19T04:54:37.236Z,8.53
2022-10-19T04:57:05.506Z,8.60
2022-10-19T04:59:33.570Z,8.57
2022-10-19T05:02:01.580Z,8.47
2022-10-19T05:04:30.880Z,8.56
2022-10-19T05:06:59.111Z,8.74
2022-10-19T05:09:27.054Z,8.97
2022-10-19T05:11:55.028Z,9.11
2022-10-19T05:14:23.068Z,9.11
2022-10-19T05:16:51.935Z,9.08
2022-10-19T05:19:19.903Z,9.36
2022-10-19T05:21:49.255Z,9.42
2022-10-19T05:24:17.257Z,9.48
2022-10-19T05:26:45.187Z,9.70
2022-10-19T05:29:14.494Z,9.51
2022-10-19T05:31:42.472Z,9.57
2022-10-19T05:34:11.376Z,9.50
2022-10-19T05:36:40.903Z,9.36
2022-10-19T05:39:14.121Z,9.30
2022-10-19T05:41:44.231Z,9.18
2022-10-19T05:44:15.811Z,9.29
2022-10-19T05:46:45.178Z,9.09
2022-10-19T05:49:14.044Z,9.09
2022-10-19T05:51:43.281Z,9.09
2022-10-19T05:54:13.017Z,9.14
2022-10-19T05:56:41.661Z,8.98
2022-10-19T05:59:12.326Z,8.98
2022-10-19T06:01:40.415Z,9.01
2022-10-19T06:04:08.483Z,9.04
2022-10-19T06:06:36.471Z,9.20
2022-10-19T06:09:05.403Z,9.07
2022-10-19T06:11:39.113Z,9.23
2022-10-19T06:14:09.687Z,9.29
2022-10-19T06:16:37.765Z,9.16
2022-10-19T06:19:06.577Z,9.16
2022-10-19T06:21:35.729Z,9.04
2022-10-19T06:24:05.781Z,9.08
2022-10-19T06:26:36.708Z,9.18
2022-10-19T06:29:05.676Z,9.28
2022-10-19T06:31:35.092Z,9.23
2022-10-19T06:34:03.327Z,9.29
2022-10-19T06:36:32.280Z,9.39
2022-10-19T06:39:01.791Z,9.54
2022-10-19T06:41:30.385Z,9.67
2022-10-19T06:44:11.506Z,9.58
2022-10-19T06:46:39.732Z,9.58
2022-10-19T06:49:07.717Z,9.53
2022-10-19T06:51:35.699Z,9.70
2022-10-19T06:54:03.651Z,9.73
2022-10-19T06:56:31.623Z,9.78
2022-10-19T06:59:00.048Z,9.85
2022-10-19T07:01:29.698Z,9.84
2022-10-19T07:03:57.761Z,9.94
2022-10-19T07:06:27.839Z,10.02
2022-10-19T07:08:55.827Z,10.16
2022-10-19T07:11:23.728Z,10.20
2022-10-19T07:13:53.305Z,10.03
2022-10-19T07:16:22.058Z,10.19
2022-10-19T07:18:53.029Z,10.23
2022-10-19T07:21:22.970Z,10.26
2022-10-19T07:23:50.983Z,10.36
2022-10-19T07:26:23.524Z,10.43
2022-10-19T07:28:52.102Z,10.67
2022-10-19T07:31:22.210Z,10.84
2022-10-19T07:33:54.997Z,10.72
2022-10-19T07:36:25.268Z,10.85
2022-10-19T07:38:53.656Z,11.11
2022-10-19T07:41:23.403Z,11.36
2022-10-19T07:43:52.160Z,11.47
2022-10-19T07:46:21.857Z,11.58
2022-10-19T07:48:50.360Z,11.63
2022-10-19T07:51:21.096Z,11.51
2022-10-19T07:53:49.944Z,11.55
2022-10-19T07:56:20.056Z,11.79
2022-10-19T07:58:48.940Z,11.68
2022-10-19T08:01:18.362Z,11.70
2022-10-19T08:06:38.431Z,11.79
2022-10-19T08:09:07.034Z,11.88
2022-10-19T08:11:36.636Z,11.82
2022-10-19T08:14:05.230Z,11.85
2022-10-19T08:16:36.713Z,11.83
2022-10-19T08:19:07.155Z,11.93
2022-10-19T08:21:36.663Z,11.93
2022-10-19T08:24:06.770Z,11.79
2022-10-19T08:26:36.619Z,11.89
2022-10-19T08:29:06.309Z,11.98
2022-10-19T08:31:34.407Z,12.17
2022-10-19T08:34:02.735Z,12.32
2022-10-19T08:36:31.390Z,12.43
2022-10-19T08:39:00.034Z,12.51
2022-10-19T08:41:36.958Z,12.64
2022-10-19T08:44:17.780Z,12.60
2022-10-19T08:46:55.938Z,12.60
2022-10-19T08:49:26.644Z,12.55
2022-10-19T08:51:58.626Z,12.71
2022-10-19T08:54:35.402Z,12.67
2022-10-19T08:57:14.920Z,12.62
2022-10-19T08:59:49.942Z,12.74
2022-10-19T09:02:24.054Z,13.07
2022-10-19T09:04:59.465Z,13.14
2022-10-19T09:07:30.019Z,13.02
2022-10-19T09:10:02.564Z,13.02
2022-10-19T09:12:42.068Z,12.89
2022-10-19T09:15:13.891Z,12.96
2022-10-19T09:17:41.886Z,12.96
2022-10-19T09:20:19.317Z,13.38
2022-10-19T09:22:51.880Z,13.55
2022-10-19T09:25:22.221Z,13.62
2022-10-19T09:28:10.879Z,13.64
2022-10-19T09:30:41.653Z,13.28
2022-10-19T09:33:17.230Z,13.10
2022-10-19T09:35:47.675Z,13.31
2022-10-19T09:38:17.736Z,12.93
2022-10-19T09:40:45.799Z,13.19
2022-10-19T09:43:22.143Z,13.24
2022-10-19T09:45:54.178Z,13.34
2022-10-19T09:48:32.312Z,13.54
2022-10-19T09:51:01.761Z,13.55
2022-10-19T09:53:30.710Z,13.61
2022-10-19T09:56:01.127Z,13.65
2022-10-19T09:58:33.146Z,13.90
2022-10-19T10:01:03.438Z,13.81
2022-10-19T10:03:35.222Z,13.37
2022-10-19T10:06:06.798Z,13.43
2022-10-19T10:08:37.854Z,13.40
2022-10-19T10:11:10.758Z,13.48
2022-10-19T10:13:42.605Z,13.48
2022-10-19T10:16:15.130Z,13.54
2022-10-19T10:18:52.426Z,13.28
2022-10-19T10:21:25.718Z,13.02
2022-10-19T10:24:05.368Z,13.38
2022-10-19T10:26:38.638Z,13.64
2022-10-19T10:29:19.545Z,13.93
2022-10-19T10:31:50.585Z,13.61
2022-10-19T10:34:37.530Z,13.46
2022-10-19T10:37:21.370Z,13.58
2022-10-19T10:39:52.725Z,13.62
2022-10-19T10:42:28.054Z,13.53
2022-10-19T10:44:58.075Z,13.44
2022-10-19T10:47:27.586Z,13.57
2022-10-19T10:49:58.905Z,13.61
2022-10-19T10:52:29.111Z,13.19
2022-10-19T10:55:02.812Z,13.33
2022-10-19T10:57:34.563Z,13.68
2022-10-19T11:00:11.257Z,13.55
2022-10-19T11:02:47.568Z,13.71
2022-10-19T11:05:20.657Z,13.82
2022-10-19T11:07:53.097Z,14.13
2022-10-19T11:10:27.584Z,13.98
2022-10-19T11:13:05.526Z,13.82
2022-10-19T11:15:38.696Z,13.69
2022-10-19T11:18:25.368Z,13.98
2022-10-19T11:21:02.009Z,14.45
2022-10-19T11:23:50.243Z,14.62
2022-10-19T11:26:40.851Z,14.92
2022-10-19T11:29:21.669Z,14.71
2022-10-19T11:31:54.245Z,14.92
2022-10-19T11:34:38.792Z,14.90
2022-10-19T11:37:15.837Z,14.62
2022-10-19T11:39:55.615Z,14.30
2022-10-19T11:42:41.280Z,14.35
2022-10-19T11:45:17.221Z,14.30
2022-10-19T11:48:00.018Z,14.30
2022-10-19T11:50:37.438Z,14.06
2022-10-19T11:53:13.427Z,13.98
2022-10-19T11:55:48.783Z,14.03
2022-10-19T11:58:34.838Z,13.99
2022-10-19T12:01:13.731Z,14.00
2022-10-19T12:04:14.439Z,14.26
2022-10-19T12:06:50.067Z,14.57
2022-10-19T12:09:30.451Z,14.42
2022-10-19T12:12:12.584Z,14.33
2022-10-19T12:14:44.962Z,14.54
2022-10-19T12:17:18.704Z,14.52
2022-10-19T12:19:51.222Z,14.35
2022-10-19T12:22:24.710Z,15.11
2022-10-19T12:24:55.483Z,15.99
2022-10-19T12:27:30.637Z,15.28
2022-10-19T12:30:04.992Z,15.31
2022-10-19T12:32:40.961Z,15.51
2022-10-19T12:35:21.557Z,15.83
2022-10-19T12:37:56.783Z,14.82
2022-10-19T12:40:32.916Z,14.82
2022-10-19T12:43:09.506Z,14.68
2022-10-19T12:45:41.472Z,14.71
2022-10-19T12:48:24.800Z,15.51
2022-10-19T12:51:17.859Z,15.70
2022-10-19T12:53:49.922Z,16.00
2022-10-19T12:56:21.694Z,15.99
2022-10-19T12:58:56.180Z,15.63
2022-10-19T13:01:27.802Z,15.32
2022-10-19T13:04:09.811Z,16.65
2022-10-19T13:06:42.298Z,17.51
2022-10-19T13:09:31.463Z,16.99
2022-10-19T13:12:39.077Z,17.18
2022-10-19T13:15:27.833Z,16.96
2022-10-19T13:17:56.116Z,17.30
2022-10-19T13:20:51.657Z,15.99
2022-10-19T13:23:42.186Z,16.47
2022-10-19T13:26:41.864Z,16.37
2022-10-19T13:29:25.998Z,17.20
2022-10-19T13:31:54.118Z,16.45
2022-10-19T13:34:26.384Z,15.59
2022-10-19T13:37:01.794Z,15.16
2022-10-19T13:39:31.311Z,14.73
2022-10-19T13:42:00.630Z,14.75
2022-10-19T13:44:33.915Z,14.27
2022-10-19T13:47:39.465Z,14.35
2022-10-19T13:50:36.535Z,14.20
2022-10-19T13:53:20.311Z,14.08
2022-10-19T13:56:20.206Z,14.42
2022-10-19T13:59:11.491Z,14.54
2022-10-19T14:01:51.086Z,14.27
2022-10-19T14:04:26.350Z,13.72
2022-10-19T14:06:58.264Z,13.66
2022-10-19T14:10:09.148Z,13.72
2022-10-19T14:12:42.329Z,13.65
2022-10-19T14:15:22.400Z,13.65
2022-10-19T14:17:50.597Z,13.47
2022-10-19T14:20:37.129Z,13.41
2022-10-19T14:23:20.080Z,13.36
2022-10-19T14:25:52.317Z,13.38
2022-10-19T14:28:21.345Z,13.37
2022-10-19T14:30:57.960Z,13.19
2022-10-19T14:33:27.204Z,13.23
2022-10-19T14:35:55.913Z,13.21
2022-10-19T14:38:30.299Z,13.17
2022-10-19T14:40:58.373Z,13.00
2022-10-19T14:43:28.519Z,13.09
2022-10-19T14:46:22.503Z,12.99
2022-10-19T14:48:51.877Z,13.12
2022-10-19T14:51:30.669Z,12.92
2022-10-19T14:54:02.567Z,13.03
2022-10-19T14:56:34.847Z,13.02
2022-10-19T14:59:08.712Z,12.96
2022-10-19T15:01:38.156Z,13.00
2022-10-19T15:04:06.510Z,12.82
2022-10-19T15:06:38.469Z,12.79
2022-10-19T15:09:15.397Z,12.74
2022-10-19T15:11:53.974Z,12.62
2022-10-19T15:14:24.563Z,12.61
2022-10-19T15:16:55.761Z,12.60
2022-10-19T15:19:29.641Z,12.50
2022-10-19T15:22:18.510Z,12.36
2022-10-19T15:25:01.710Z,12.33
2022-10-19T15:27:32.515Z,12.23
2022-10-19T15:30:02.752Z,12.16
2022-10-19T15:32:37.913Z,12.05
2022-10-19T15:35:16.884Z,11.96
2022-10-19T15:37:46.362Z,11.85
2022-10-19T15:40:20.606Z,11.82
2022-10-19T15:42:49.044Z,11.72
2022-10-19T15:45:35.490Z,11.67
2022-10-19T15:48:27.957Z,11.60
2022-10-19T15:50:57.635Z,11.51
2022-10-19T15:53:26.345Z,11.48
2022-10-19T15:55:54.338Z,11.33
2022-10-19T15:58:22.307Z,11.27
2022-10-19T16:00:50.281Z,11.18
2022-10-19T16:03:19.663Z,11.18
2022-10-19T16:05:47.670Z,11.09
2022-10-19T16:08:15.658Z,10.95
2022-10-19T16:10:43.564Z,10.82
2022-10-19T16:13:11.513Z,10.72
2022-10-19T16:15:39.463Z,10.63
2022-10-19T16:18:07.363Z,10.60
2022-10-19T16:20:37.397Z,10.44
2022-10-19T16:23:05.485Z,10.29
2022-10-19T16:25:33.407Z,10.32
2022-10-19T16:28:01.323Z,10.16
2022-10-19T16:30:29.347Z,10.09
2022-10-19T16:32:57.243Z,9.99
2022-10-19T16:35:25.396Z,9.94
2022-10-19T16:37:54.625Z,9.85
2022-10-19T16:40:24.531Z,9.84
2022-10-19T16:42:52.558Z,9.92
2022-10-19T16:45:20.500Z,9.95
2022-10-19T16:47:50.793Z,9.92
2022-10-19T16:50:18.793Z,9.92
2022-10-19T16:52:46.779Z,9.73
2022-10-19T16:55:16.144Z,9.64
2022-10-19T16:57:44.233Z,9.65
2022-10-19T17:00:13.458Z,9.70
2022-10-19T17:02:44.330Z,9.53
2022-10-19T17:05:14.627Z,9.58
2022-10-19T17:07:42.547Z,9.44
2022-10-19T17:10:11.266Z,9.46
2022-10-19T17:12:41.892Z,9.43
2022-10-19T17:15:40.808Z,9.39
2022-10-19T17:17:59.524Z,9.23
2022-10-19T17:20:27.468Z,9.23
2022-10-19T17:22:55.454Z,9.09
2022-10-19T17:25:23.359Z,9.14
2022-10-19T17:27:53.339Z,8.95
2022-10-19T17:30:21.274Z,8.89
2022-10-19T17:32:49.998Z,8.98
2022-10-19T17:35:18.004Z,8.95
2022-10-19T17:37:45.979Z,9.00
2022-10-19T17:40:14.124Z,8.70
2022-10-19T17:42:42.173Z,8.73
2022-10-19T17:45:12.207Z,8.73
2022-10-19T17:47:40.141Z,8.74
2022-10-19T17:50:08.607Z,8.63
2022-10-19T17:52:36.524Z,8.66
2022-10-19T17:55:12.016Z,8.57
2022-10-19T17:57:40.507Z,8.53
2022-10-19T18:00:09.658Z,8.40
2022-10-19T18:02:41.734Z,8.31
2022-10-19T18:05:10.544Z,8.42
2022-10-19T18:07:38.536Z,8.28
2022-10-19T18:10:07.140Z,8.29
2022-10-19T18:12:35.117Z,8.25
2022-10-19T18:15:03.341Z,8.31
2022-10-19T18:17:31.229Z,8.29
2022-10-19T18:20:00.577Z,8.24
2022-10-19T18:22:28.558Z,8.22
2022-10-19T18:24:56.530Z,8.14
2022-10-19T18:27:25.004Z,8.06
2022-10-19T18:29:52.942Z,8.11
2022-10-19T18:32:20.929Z,8.16
2022-10-19T18:34:49.087Z,7.98
2022-10-19T18:37:18.423Z,8.14
2022-10-19T18:39:46.342Z,8.06
2022-10-19T18:42:14.246Z,8.09
2022-10-19T18:44:42.158Z,7.98
2022-10-19T18:47:10.145Z,7.91
2022-10-19T18:49:38.023Z,8.01
2022-10-19T18:52:06.143Z,7.97
2022-10-19T18:54:35.485Z,8.08
2022-10-19T18:57:03.484Z,8.11
2022-10-19T18:59:31.687Z,7.91
2022-10-19T19:01:59.770Z,7.81
2022-10-19T19:04:28.134Z,7.97
2022-10-19T19:06:56.159Z,7.93
2022-10-19T19:09:24.066Z,7.93
2022-10-19T19:11:54.487Z,7.98
2022-10-19T19:14:22.853Z,7.91
2022-10-19T19:16:51.175Z,7.99
2022-10-19T19:19:20.252Z,7.86
2022-10-19T19:21:49.773Z,7.77
2022-10-19T19:24:20.017Z,7.67
2022-10-19T19:26:50.902Z,7.65
2022-10-19T19:29:22.274Z,7.63
2022-10-19T19:31:50.218Z,7.60
2022-10-19T19:34:18.125Z,7.65
2022-10-19T19:36:48.914Z,7.65
2022-10-19T19:39:18.698Z,7.62
2022-10-19T19:41:47.072Z,7.70
2022-10-19T19:44:14.917Z,7.59
2022-10-19T19:46:44.205Z,7.65
2022-10-19T19:49:12.552Z,7.73
2022-10-19T19:51:40.539Z,7.70
2022-10-19T19:54:08.613Z,7.66
2022-10-19T19:56:37.495Z,7.69
2022-10-19T19:59:05.476Z,7.71
2022-10-19T20:01:33.897Z,7.70
2022-10-19T20:06:38.237Z,7.77
2022-10-19T20:09:06.881Z,7.73
2022-10-19T20:11:38.372Z,7.70
2022-10-19T20:14:09.214Z,7.71
2022-10-19T20:16:37.605Z,7.65
2022-10-19T20:19:09.005Z,7.69
2022-10-19T20:21:37.185Z,7.60
2022-10-19T20:24:05.544Z,7.60
2022-10-19T20:26:33.657Z,7.62
2022-10-19T20:29:03.132Z,7.58
2022-10-19T20:31:33.375Z,7.53
2022-10-19T20:34:01.548Z,7.56
2022-10-19T20:36:30.835Z,7.60
2022-10-19T20:38:59.358Z,7.62
2022-10-19T20:41:29.255Z,7.46
2022-10-19T20:43:57.540Z,7.51
2022-10-19T20:46:28.284Z,7.43
2022-10-19T20:48:59.556Z,7.45
2022-10-19T20:51:32.123Z,7.48
2022-10-19T20:54:03.658Z,7.53
2022-10-19T20:56:33.834Z,7.25
2022-10-19T21:01:38.585Z,7.19
2022-10-19T21:04:07.419Z,7.07
2022-10-19T21:06:38.977Z,7.05
2022-10-19T21:09:08.894Z,7.09
2022-10-19T21:11:37.384Z,7.12
2022-10-19T21:14:07.665Z,7.07
2022-10-19T21:16:37.756Z,7.08
2022-10-19T21:19:07.095Z,7.05
2022-10-19T21:21:37.553Z,7.08
2022-10-19T21:24:09.122Z,7.07
2022-10-19T21:26:38.094Z,7.09
2022-10-19T21:29:09.460Z,7.09
2022-10-19T21:31:39.307Z,7.08
2022-10-19T21:34:08.228Z,6.97
2022-10-19T21:36:36.411Z,7.01
2022-10-19T21:39:04.902Z,7.03
2022-10-19T21:41:34.212Z,7.00
2022-10-19T21:44:02.249Z,6.91
2022-10-19T21:46:30.273Z,6.96
2022-10-19T21:48:59.071Z,7.04
2022-10-19T21:56:26.796Z,7.04
2022-10-19T21:58:59.219Z,7.03
2022-10-19T22:01:29.567Z,7.05
2022-10-19T22:03:58.167Z,7.04
2022-10-19T22:06:27.289Z,6.98
2022-10-19T22:08:56.213Z,6.89
2022-10-19T22:11:24.710Z,6.84
2022-10-19T22:13:54.968Z,6.86
2022-10-19T22:16:25.539Z,6.81
2022-10-19T22:18:54.298Z,6.72
2022-10-19T22:21:24.341Z,6.62
2022-10-19T22:23:53.578Z,6.63
2022-10-19T22:26:23.998Z,6.63
2022-10-19T22:28:52.571Z,6.57
2022-10-19T22:31:20.503Z,6.42
2022-10-19T22:33:49.995Z,6.50
2022-10-19T22:36:18.408Z,6.55
2022-10-19T22:38:47.126Z,6.21
2022-10-19T22:41:15.067Z,6.11
2022-10-19T22:43:43.137Z,6.25
2022-10-19T22:46:11.051Z,6.25
2022-10-19T22:48:38.994Z,6.03
2022-10-19T22:51:08.572Z,6.01
2022-10-19T22:53:36.855Z,6.13
2022-10-19T22:56:05.758Z,6.11
2022-10-19T22:58:33.755Z,6.11
2022-10-19T23:01:03.581Z,6.16
2022-10-19T23:03:31.538Z,6.03
2022-10-19T23:05:59.485Z,5.99
2022-10-19T23:08:29.675Z,5.99
2022-10-19T23:10:57.720Z,5.89
2022-10-19T23:13:25.881Z,5.76
2022-10-19T23:15:53.886Z,5.92
2022-10-19T23:18:21.837Z,5.96
2022-10-19T23:20:56.702Z,5.97
2022-10-19T23:23:25.416Z,6.09
2022-10-19T23:26:06.328Z,6.06
2022-10-19T23:28:36.360Z,6.03
2022-10-19T23:31:07.423Z,6.04
2022-10-19T23:33:35.641Z,6.06
2022-10-19T23:36:05.810Z,6.13
2022-10-19T23:38:33.862Z,6.18
2022-10-19T23:41:03.252Z,6.00
2022-10-19T23:43:32.845Z,6.14
2022-10-19T23:46:01.028Z,6.28
2022-10-19T23:48:29.359Z,6.29
2022-10-19T23:50:58.528Z,6.17
2022-10-19T23:53:26.956Z,6.01
2022-10-19T23:55:59.598Z,6.00
2022-10-19T23:58:29.353Z,6.04
